sensor_id;sensor_type;location;lat;lon;timestamp;pressure;altitude;pressure_sealevel;temperature;humidity
8160;BME280;27404;52.398;9.646;2023-03-18T00:00:38;100119.84;;;9.82;100.00
8160;BME280;27404;52.398;9.646;2023-03-18T00:03:05;100123.06;;;9.79;100.00
8160;BME280;27404;52.398;9.646;2023-03-18T00:05:31;100118.91;;;9.76;100.00
8160;BME280;27404;52.398;9.646;2023-03-18T00:07:57;100121.31;;;9.73;100.00
8160;BME280;27404;52.398;9.646;2023-03-18T00:10:23;100115.59;;;9.74;100.00
8160;BME280;27404;52.398;9.646;2023-03-18T00:12:49;100108.97;;;9.70;100.00
8160;BME280;27404;52.398;9.646;2023-03-18T00:15:15;100110.03;;;9.69;100.00
8160;BME280;27404;52.398;9.646;2023-03-18T00:17:42;100101.72;;;9.64;100.00
8160;BME280;27404;52.398;9.646;2023-03-18T00:20:09;100100.44;;;9.67;100.00
8160;BME280;27404;52.398;9.646;2023-03-18T00:22:37;100106.81;;;9.72;100.00
8160;BME280;27404;52.398;9.646;2023-03-18T00:25:04;100107.06;;;9.71;100.00
8160;BME280;27404;52.398;9.646;2023-03-18T00:27:32;100107.78;;;9.66;100.00
8160;BME280;27404;52.398;9.646;2023-03-18T00:29:58;100110.78;;;9.65;100.00
8160;BME280;27404;52.398;9.646;2023-03-18T00:32:27;100114.31;;;9.65;100.00
8160;BME280;27404;52.398;9.646;2023-03-18T00:34:54;100116.44;;;9.63;100.00
8160;BME280;27404;52.398;9.646;2023-03-18T00:37:20;100114.31;;;9.65;100.00
8160;BME280;27404;52.398;9.646;2023-03-18T00:39:58;100124.16;;;9.66;100.00
8160;BME280;27404;52.398;9.646;2023-03-18T00:42:29;100120.84;;;9.64;100.00
8160;BME280;27404;52.398;9.646;2023-03-18T00:45:02;100123.34;;;9.66;100.00
8160;BME280;27404;52.398;9.646;2023-03-18T00:47:29;100128.81;;;9.66;100.00
8160;BME280;27404;52.398;9.646;2023-03-18T00:49:54;100134.00;;;9.67;100.00
8160;BME280;27404;52.398;9.646;2023-03-18T00:52:21;100135.19;;;9.71;100.00
8160;BME280;27404;52.398;9.646;2023-03-18T00:54:47;100136.13;;;9.77;100.00
8160;BME280;27404;52.398;9.646;2023-03-18T00:57:14;100142.59;;;9.88;100.00
8160;BME280;27404;52.398;9.646;2023-03-18T00:59:39;100149.06;;;10.11;100.00
8160;BME280;27404;52.398;9.646;2023-03-18T01:02:05;100156.00;;;10.18;100.00
8160;BME280;27404;52.398;9.646;2023-03-18T01:04:31;100156.69;;;10.26;100.00
8160;BME280;27404;52.398;9.646;2023-03-18T01:06:57;100150.97;;;10.27;100.00
8160;BME280;27404;52.398;9.646;2023-03-18T01:09:22;100157.09;;;10.34;100.00
8160;BME280;27404;52.398;9.646;2023-03-18T01:11:48;100154.63;;;10.33;100.00
8160;BME280;27404;52.398;9.646;2023-03-18T01:14:13;100139.63;;;10.35;100.00
8160;BME280;27404;52.398;9.646;2023-03-18T01:16:39;100142.75;;;10.39;100.00
8160;BME280;27404;52.398;9.646;2023-03-18T01:19:04;100144.59;;;10.38;100.00
8160;BME280;27404;52.398;9.646;2023-03-18T01:21:31;100141.78;;;10.33;100.00
8160;BME280;27404;52.398;9.646;2023-03-18T01:23:56;100150.97;;;10.27;100.00
8160;BME280;27404;52.398;9.646;2023-03-18T01:26:24;100146.25;;;10.22;100.00
8160;BME280;27404;52.398;9.646;2023-03-18T01:28:50;100140.56;;;10.24;100.00
8160;BME280;27404;52.398;9.646;2023-03-18T01:31:16;100143.09;;;10.14;100.00
8160;BME280;27404;52.398;9.646;2023-03-18T01:33:42;100156.84;;;10.19;100.00
8160;BME280;27404;52.398;9.646;2023-03-18T01:36:08;100160.50;;;10.25;100.00
8160;BME280;27404;52.398;9.646;2023-03-18T01:38:34;100157.75;;;10.25;100.00
8160;BME280;27404;52.398;9.646;2023-03-18T01:41:00;100155.13;;;10.30;100.00
8160;BME280;27404;52.398;9.646;2023-03-18T01:43:29;100153.69;;;10.27;100.00
8160;BME280;27404;52.398;9.646;2023-03-18T01:45:57;100152.63;;;10.28;100.00
8160;BME280;27404;52.398;9.646;2023-03-18T01:48:25;100157.19;;;10.22;100.00
8160;BME280;27404;52.398;9.646;2023-03-18T01:50:58;100158.75;;;10.18;100.00
8160;BME280;27404;52.398;9.646;2023-03-18T01:53:28;100155.13;;;10.01;100.00
8160;BME280;27404;52.398;9.646;2023-03-18T01:55:56;100151.00;;;9.98;100.00
8160;BME280;27404;52.398;9.646;2023-03-18T01:58:28;100148.66;;;9.90;100.00
8160;BME280;27404;52.398;9.646;2023-03-18T02:01:01;100150.47;;;9.84;100.00
8160;BME280;27404;52.398;9.646;2023-03-18T02:03:27;100142.75;;;9.81;100.00
8160;BME280;27404;52.398;9.646;2023-03-18T02:05:54;100155.94;;;9.72;100.00
8160;BME280;27404;52.398;9.646;2023-03-18T02:08:19;100155.94;;;9.72;100.00
8160;BME280;27404;52.398;9.646;2023-03-18T02:10:46;100162.38;;;9.66;100.00
8160;BME280;27404;52.398;9.646;2023-03-18T02:13:13;100153.47;;;9.71;100.00
8160;BME280;27404;52.398;9.646;2023-03-18T02:15:47;100150.63;;;9.66;100.00
8160;BME280;27404;52.398;9.646;2023-03-18T02:18:20;100159.03;;;9.64;100.00
8160;BME280;27404;52.398;9.646;2023-03-18T02:28:44;100159.94;;;9.41;100.00
8160;BME280;27404;52.398;9.646;2023-03-18T02:31:13;100167.06;;;9.30;100.00
8160;BME280;27404;52.398;9.646;2023-03-18T02:33:40;100167.53;;;9.27;100.00
8160;BME280;27404;52.398;9.646;2023-03-18T02:36:27;100162.34;;;9.13;100.00
8160;BME280;27404;52.398;9.646;2023-03-18T02:38:55;100158.78;;;9.01;100.00
8160;BME280;27404;52.398;9.646;2023-03-18T02:41:29;100157.38;;;8.98;100.00
8160;BME280;27404;52.398;9.646;2023-03-18T02:43:55;100158.09;;;8.94;100.00
8160;BME280;27404;52.398;9.646;2023-03-18T02:46:40;100169.34;;;8.85;100.00
8160;BME280;27404;52.398;9.646;2023-03-18T02:49:12;100178.94;;;8.88;100.00
8160;BME280;27404;52.398;9.646;2023-03-18T02:51:39;100176.78;;;8.90;100.00
8160;BME280;27404;52.398;9.646;2023-03-18T02:54:12;100180.13;;;8.80;100.00
8160;BME280;27404;52.398;9.646;2023-03-18T02:56:40;100179.06;;;8.81;100.00
8160;BME280;27404;52.398;9.646;2023-03-18T02:59:07;100183.91;;;8.79;100.00
8160;BME280;27404;52.398;9.646;2023-03-18T03:01:33;100190.03;;;8.74;100.00
8160;BME280;27404;52.398;9.646;2023-03-18T03:04:00;100194.44;;;8.76;100.00
8160;BME280;27404;52.398;9.646;2023-03-18T03:06:25;100198.00;;;8.76;100.00
8160;BME280;27404;52.398;9.646;2023-03-18T03:08:51;100199.66;;;8.77;100.00
8160;BME280;27404;52.398;9.646;2023-03-18T03:11:17;100196.94;;;8.77;100.00
8160;BME280;27404;52.398;9.646;2023-03-18T03:13:44;100201.41;;;8.71;100.00
8160;BME280;27404;52.398;9.646;2023-03-18T03:16:11;100206.50;;;8.68;100.00
8160;BME280;27404;52.398;9.646;2023-03-18T03:18:38;100208.03;;;8.64;100.00
8160;BME280;27404;52.398;9.646;2023-03-18T03:21:04;100212.06;;;8.61;100.00
8160;BME280;27404;52.398;9.646;2023-03-18T03:23:30;100207.09;;;8.58;100.00
8160;BME280;27404;52.398;9.646;2023-03-18T03:25:56;100204.59;;;8.56;100.00
8160;BME280;27404;52.398;9.646;2023-03-18T03:28:22;100210.53;;;8.65;100.00
8160;BME280;27404;52.398;9.646;2023-03-18T03:30:48;100213.16;;;8.60;100.00
8160;BME280;27404;52.398;9.646;2023-03-18T03:33:13;100216.53;;;8.55;100.00
8160;BME280;27404;52.398;9.646;2023-03-18T03:35:40;100215.47;;;8.56;100.00
8160;BME280;27404;52.398;9.646;2023-03-18T03:38:06;100219.28;;;8.55;100.00
8160;BME280;27404;52.398;9.646;2023-03-18T03:40:32;100210.28;;;8.55;100.00
8160;BME280;27404;52.398;9.646;2023-03-18T03:42:58;100211.09;;;8.55;100.00
8160;BME280;27404;52.398;9.646;2023-03-18T03:45:24;100214.88;;;8.54;100.00
8160;BME280;27404;52.398;9.646;2023-03-18T03:47:49;100211.69;;;8.57;100.00
8160;BME280;27404;52.398;9.646;2023-03-18T03:50:16;100204.84;;;8.55;100.00
8160;BME280;27404;52.398;9.646;2023-03-18T03:52:42;100208.75;;;8.59;100.00
8160;BME280;27404;52.398;9.646;2023-03-18T03:55:10;100213.81;;;8.55;100.00
8160;BME280;27404;52.398;9.646;2023-03-18T03:57:36;100211.56;;;8.52;100.00
8160;BME280;27404;52.398;9.646;2023-03-18T04:00:08;100224.25;;;8.58;100.00
8160;BME280;27404;52.398;9.646;2023-03-18T04:02:38;100228.28;;;8.56;100.00
8160;BME280;27404;52.398;9.646;2023-03-18T04:05:05;100221.66;;;8.52;100.00
8160;BME280;27404;52.398;9.646;2023-03-18T04:07:30;100229.81;;;8.52;100.00
8160;BME280;27404;52.398;9.646;2023-03-18T04:09:56;100221.88;;;8.62;100.00
8160;BME280;27404;52.398;9.646;2023-03-18T04:12:21;100224.53;;;8.69;100.00
8160;BME280;27404;52.398;9.646;2023-03-18T04:14:48;100222.97;;;8.61;100.00
8160;BME280;27404;52.398;9.646;2023-03-18T04:17:14;100226.28;;;8.63;100.00
8160;BME280;27404;52.398;9.646;2023-03-18T04:19:39;100228.16;;;8.51;100.00
8160;BME280;27404;52.398;9.646;2023-03-18T04:22:05;100226.75;;;8.60;100.00
8160;BME280;27404;52.398;9.646;2023-03-18T04:24:30;100216.94;;;8.59;100.00
8160;BME280;27404;52.398;9.646;2023-03-18T04:26:56;100220.13;;;8.56;100.00
8160;BME280;27404;52.398;9.646;2023-03-18T04:29:22;100228.59;;;8.48;100.00
8160;BME280;27404;52.398;9.646;2023-03-18T04:31:47;100224.88;;;8.42;100.00
8160;BME280;27404;52.398;9.646;2023-03-18T04:34:13;100226.78;;;8.41;100.00
8160;BME280;27404;52.398;9.646;2023-03-18T04:36:39;100237.56;;;8.48;100.00
8160;BME280;27404;52.398;9.646;2023-03-18T04:39:04;100232.00;;;8.43;100.00
8160;BME280;27404;52.398;9.646;2023-03-18T04:41:30;100232.84;;;8.43;100.00
8160;BME280;27404;52.398;9.646;2023-03-18T04:43:56;100229.25;;;8.43;100.00
8160;BME280;27404;52.398;9.646;2023-03-18T04:46:22;100227.38;;;8.43;100.00
8160;BME280;27404;52.398;9.646;2023-03-18T04:48:47;100235.78;;;8.42;100.00
8160;BME280;27404;52.398;9.646;2023-03-18T04:51:13;100239.47;;;8.48;100.00
8160;BME280;27404;52.398;9.646;2023-03-18T04:53:39;100234.03;;;8.48;100.00
8160;BME280;27404;52.398;9.646;2023-03-18T04:56:05;100227.56;;;8.49;100.00
8160;BME280;27404;52.398;9.646;2023-03-18T04:58:31;100232.75;;;8.50;100.00
8160;BME280;27404;52.398;9.646;2023-03-18T05:00:57;100233.00;;;8.49;100.00
8160;BME280;27404;52.398;9.646;2023-03-18T05:03:22;100233.91;;;8.42;100.00
8160;BME280;27404;52.398;9.646;2023-03-18T05:05:48;100228.66;;;8.41;100.00
8160;BME280;27404;52.398;9.646;2023-03-18T05:08:14;100240.22;;;8.24;100.00
8160;BME280;27404;52.398;9.646;2023-03-18T05:10:40;100232.97;;;8.18;100.00
8160;BME280;27404;52.398;9.646;2023-03-18T05:13:06;100222.59;;;8.27;100.00
8160;BME280;27404;52.398;9.646;2023-03-18T05:15:32;100232.81;;;8.13;100.00
8160;BME280;27404;52.398;9.646;2023-03-18T05:17:58;100231.47;;;8.04;100.00
8160;BME280;27404;52.398;9.646;2023-03-18T05:20:24;100233.81;;;8.00;100.00
8160;BME280;27404;52.398;9.646;2023-03-18T05:22:49;100239.19;;;7.88;100.00
8160;BME280;27404;52.398;9.646;2023-03-18T05:25:15;100240.19;;;7.94;100.00
8160;BME280;27404;52.398;9.646;2023-03-18T05:27:41;100240.75;;;7.96;100.00
8160;BME280;27404;52.398;9.646;2023-03-18T05:30:06;100243.88;;;7.99;100.00
8160;BME280;27404;52.398;9.646;2023-03-18T05:32:33;100245.75;;;7.99;100.00
8160;BME280;27404;52.398;9.646;2023-03-18T05:34:58;100253.19;;;7.92;100.00
8160;BME280;27404;52.398;9.646;2023-03-18T05:37:24;100254.63;;;7.94;100.00
8160;BME280;27404;52.398;9.646;2023-03-18T05:39:50;100255.22;;;7.96;100.00
8160;BME280;27404;52.398;9.646;2023-03-18T05:42:16;100249.09;;;8.01;100.00
8160;BME280;27404;52.398;9.646;2023-03-18T05:44:41;100249.53;;;7.98;100.00
8160;BME280;27404;52.398;9.646;2023-03-18T05:47:10;100262.94;;;7.99;100.00
8160;BME280;27404;52.398;9.646;2023-03-18T05:49:35;100268.84;;;7.96;100.00
8160;BME280;27404;52.398;9.646;2023-03-18T05:52:01;100261.34;;;7.92;100.00
8160;BME280;27404;52.398;9.646;2023-03-18T05:54:27;100263.47;;;7.90;100.00
8160;BME280;27404;52.398;9.646;2023-03-18T05:56:53;100265.19;;;7.84;100.00
8160;BME280;27404;52.398;9.646;2023-03-18T05:59:19;100261.22;;;7.87;100.00
8160;BME280;27404;52.398;9.646;2023-03-18T06:01:46;100269.66;;;7.78;100.00
8160;BME280;27404;52.398;9.646;2023-03-18T06:04:13;100270.59;;;7.91;100.00
8160;BME280;27404;52.398;9.646;2023-03-18T06:06:39;100272.75;;;8.00;100.00
8160;BME280;27404;52.398;9.646;2023-03-18T06:09:07;100273.13;;;8.04;100.00
8160;BME280;27404;52.398;9.646;2023-03-18T06:11:32;100271.63;;;8.08;100.00
8160;BME280;27404;52.398;9.646;2023-03-18T06:13:58;100274.34;;;8.08;100.00
8160;BME280;27404;52.398;9.646;2023-03-18T06:16:24;100273.88;;;8.11;100.00
8160;BME280;27404;52.398;9.646;2023-03-18T06:18:50;100285.75;;;8.17;100.00
8160;BME280;27404;52.398;9.646;2023-03-18T06:21:15;100280.00;;;8.25;100.00
8160;BME280;27404;52.398;9.646;2023-03-18T06:23:42;100270.78;;;8.26;100.00
8160;BME280;27404;52.398;9.646;2023-03-18T06:26:07;100266.28;;;8.32;100.00
8160;BME280;27404;52.398;9.646;2023-03-18T06:28:33;100269.63;;;8.34;100.00
8160;BME280;27404;52.398;9.646;2023-03-18T06:30:59;100272.50;;;8.39;100.00
8160;BME280;27404;52.398;9.646;2023-03-18T06:33:26;100276.78;;;8.47;100.00
8160;BME280;27404;52.398;9.646;2023-03-18T06:35:52;100282.44;;;8.64;100.00
8160;BME280;27404;52.398;9.646;2023-03-18T06:38:19;100282.94;;;8.73;100.00
8160;BME280;27404;52.398;9.646;2023-03-18T06:40:45;100292.78;;;8.74;100.00
8160;BME280;27404;52.398;9.646;2023-03-18T06:43:12;100291.72;;;8.75;100.00
8160;BME280;27404;52.398;9.646;2023-03-18T06:45:38;100291.63;;;8.82;100.00
8160;BME280;27404;52.398;9.646;2023-03-18T06:48:04;100300.38;;;8.84;100.00
8160;BME280;27404;52.398;9.646;2023-03-18T06:50:30;100300.91;;;8.93;100.00
8160;BME280;27404;52.398;9.646;2023-03-18T06:52:57;100309.25;;;9.10;100.00
8160;BME280;27404;52.398;9.646;2023-03-18T06:55:24;100315.09;;;9.25;100.00
8160;BME280;27404;52.398;9.646;2023-03-18T06:57:50;100305.84;;;9.26;100.00
8160;BME280;27404;52.398;9.646;2023-03-18T07:00:16;100317.69;;;9.32;100.00
8160;BME280;27404;52.398;9.646;2023-03-18T07:02:41;100305.47;;;9.34;100.00
8160;BME280;27404;52.398;9.646;2023-03-18T07:05:08;100309.41;;;9.51;100.00
8160;BME280;27404;52.398;9.646;2023-03-18T07:07:34;100303.94;;;9.62;100.00
8160;BME280;27404;52.398;9.646;2023-03-18T07:10:03;100315.44;;;9.65;100.00
8160;BME280;27404;52.398;9.646;2023-03-18T07:12:29;100309.97;;;9.76;100.00
8160;BME280;27404;52.398;9.646;2023-03-18T07:14:55;100316.25;;;10.01;100.00
8160;BME280;27404;52.398;9.646;2023-03-18T07:17:21;100317.59;;;10.27;100.00
8160;BME280;27404;52.398;9.646;2023-03-18T07:19:47;100313.44;;;10.48;100.00
8160;BME280;27404;52.398;9.646;2023-03-18T07:22:13;100319.59;;;10.56;100.00
8160;BME280;27404;52.398;9.646;2023-03-18T07:24:42;100323.88;;;10.51;100.00
8160;BME280;27404;52.398;9.646;2023-03-18T07:27:08;100334.66;;;10.58;100.00
8160;BME280;27404;52.398;9.646;2023-03-18T07:29:34;100333.59;;;10.59;100.00
8160;BME280;27404;52.398;9.646;2023-03-18T07:32:00;100338.19;;;10.71;100.00
8160;BME280;27404;52.398;9.646;2023-03-18T07:34:26;100333.50;;;10.83;100.00
8160;BME280;27404;52.398;9.646;2023-03-18T07:36:51;100331.88;;;10.99;100.00
8160;BME280;27404;52.398;9.646;2023-03-18T07:39:18;100336.50;;;10.99;100.00
8160;BME280;27404;52.398;9.646;2023-03-18T07:41:43;100334.88;;;11.15;100.00
8160;BME280;27404;52.398;9.646;2023-03-18T07:44:08;100348.50;;;11.26;100.00
8160;BME280;27404;52.398;9.646;2023-03-18T07:46:34;100342.94;;;11.38;100.00
8160;BME280;27404;52.398;9.646;2023-03-18T07:49:00;100345.16;;;11.41;100.00
8160;BME280;27404;52.398;9.646;2023-03-18T07:51:26;100350.91;;;11.40;100.00
8160;BME280;27404;52.398;9.646;2023-03-18T07:53:51;100355.44;;;11.34;100.00
8160;BME280;27404;52.398;9.646;2023-03-18T07:56:17;100357.06;;;11.47;100.00
8160;BME280;27404;52.398;9.646;2023-03-18T07:58:42;100360.94;;;11.68;100.00
8160;BME280;27404;52.398;9.646;2023-03-18T08:01:08;100366.72;;;11.89;100.00
8160;BME280;27404;52.398;9.646;2023-03-18T08:03:34;100356.91;;;11.93;100.00
8160;BME280;27404;52.398;9.646;2023-03-18T08:05:59;100356.66;;;12.12;100.00
8160;BME280;27404;52.398;9.646;2023-03-18T08:08:26;100360.25;;;12.12;100.00
8160;BME280;27404;52.398;9.646;2023-03-18T08:10:56;100350.50;;;12.22;100.00
8160;BME280;27404;52.398;9.646;2023-03-18T08:13:22;100352.91;;;12.18;100.00
8160;BME280;27404;52.398;9.646;2023-03-18T08:15:49;100353.03;;;12.06;100.00
8160;BME280;27404;52.398;9.646;2023-03-18T08:18:15;100350.47;;;11.82;100.00
8160;BME280;27404;52.398;9.646;2023-03-18T08:20:40;100356.94;;;11.76;100.00
8160;BME280;27404;52.398;9.646;2023-03-18T08:23:06;100358.16;;;11.85;100.00
8160;BME280;27404;52.398;9.646;2023-03-18T08:25:32;100365.22;;;11.81;100.00
8160;BME280;27404;52.398;9.646;2023-03-18T08:27:57;100363.41;;;11.87;100.00
8160;BME280;27404;52.398;9.646;2023-03-18T08:30:23;100365.06;;;12.05;100.00
8160;BME280;27404;52.398;9.646;2023-03-18T08:32:53;100365.38;;;12.09;100.00
8160;BME280;27404;52.398;9.646;2023-03-18T08:35:20;100365.41;;;12.31;100.00
8160;BME280;27404;52.398;9.646;2023-03-18T08:37:45;100363.28;;;12.16;100.00
8160;BME280;27404;52.398;9.646;2023-03-18T08:40:11;100372.78;;;12.08;100.00
8160;BME280;27404;52.398;9.646;2023-03-18T08:42:37;100367.53;;;12.07;100.00
8160;BME280;27404;52.398;9.646;2023-03-18T08:45:03;100373.22;;;12.00;100.00
8160;BME280;27404;52.398;9.646;2023-03-18T08:47:29;100373.09;;;11.95;100.00
8160;BME280;27404;52.398;9.646;2023-03-18T08:49:54;100381.16;;;12.02;100.00
8160;BME280;27404;52.398;9.646;2023-03-18T08:52:20;100379.16;;;12.14;100.00
8160;BME280;27404;52.398;9.646;2023-03-18T08:54:46;100368.13;;;12.31;100.00
8160;BME280;27404;52.398;9.646;2023-03-18T08:57:12;100380.28;;;12.57;100.00
8160;BME280;27404;52.398;9.646;2023-03-18T08:59:38;100388.59;;;12.68;100.00
8160;BME280;27404;52.398;9.646;2023-03-18T09:02:03;100374.19;;;12.78;100.00
8160;BME280;27404;52.398;9.646;2023-03-18T09:04:29;100381.75;;;12.93;100.00
8160;BME280;27404;52.398;9.646;2023-03-18T09:06:55;100387.38;;;13.03;100.00
8160;BME280;27404;52.398;9.646;2023-03-18T09:09:20;100381.72;;;13.15;100.00
8160;BME280;27404;52.398;9.646;2023-03-18T09:11:46;100384.63;;;13.03;100.00
8160;BME280;27404;52.398;9.646;2023-03-18T09:14:12;100391.19;;;13.02;100.00
8160;BME280;27404;52.398;9.646;2023-03-18T09:16:38;100393.59;;;13.21;100.00
8160;BME280;27404;52.398;9.646;2023-03-18T09:19:03;100395.88;;;13.56;100.00
8160;BME280;27404;52.398;9.646;2023-03-18T09:21:28;100402.03;;;13.74;100.00
8160;BME280;27404;52.398;9.646;2023-03-18T09:23:54;100402.81;;;13.69;100.00
8160;BME280;27404;52.398;9.646;2023-03-18T09:26:19;100399.72;;;13.60;100.00
8160;BME280;27404;52.398;9.646;2023-03-18T09:28:45;100400.75;;;13.49;100.00
8160;BME280;27404;52.398;9.646;2023-03-18T09:31:11;100403.59;;;13.37;100.00
8160;BME280;27404;52.398;9.646;2023-03-18T09:33:37;100400.94;;;13.42;100.00
8160;BME280;27404;52.398;9.646;2023-03-18T09:36:06;100401.94;;;13.63;100.00
8160;BME280;27404;52.398;9.646;2023-03-18T09:38:31;100405.47;;;13.91;100.00
8160;BME280;27404;52.398;9.646;2023-03-18T09:44:04;100419.44;;;14.28;100.00
8160;BME280;27404;52.398;9.646;2023-03-18T09:54:41;100412.81;;;13.81;100.00
8160;BME280;27404;52.398;9.646;2023-03-18T09:57:37;100410.53;;;13.72;100.00
8160;BME280;27404;52.398;9.646;2023-03-18T10:02:40;100406.28;;;13.54;100.00
8160;BME280;27404;52.398;9.646;2023-03-18T10:05:16;100413.78;;;13.64;100.00
8160;BME280;27404;52.398;9.646;2023-03-18T10:07:46;100406.00;;;13.88;100.00
8160;BME280;27404;52.398;9.646;2023-03-18T10:10:26;100420.91;;;13.98;100.00
8160;BME280;27404;52.398;9.646;2023-03-18T10:13:10;100418.00;;;14.20;100.00
8160;BME280;27404;52.398;9.646;2023-03-18T10:15:41;100424.03;;;14.65;100.00
8160;BME280;27404;52.398;9.646;2023-03-18T10:18:38;100430.56;;;15.17;100.00
8160;BME280;27404;52.398;9.646;2023-03-18T10:24:15;100429.66;;;14.96;100.00
8160;BME280;27404;52.398;9.646;2023-03-18T10:26:56;100427.56;;;15.24;100.00
8160;BME280;27404;52.398;9.646;2023-03-18T10:29:37;100431.13;;;15.19;100.00
8160;BME280;27404;52.398;9.646;2023-03-18T10:39:46;100441.09;;;14.67;100.00
8160;BME280;27404;52.398;9.646;2023-03-18T10:42:28;100441.81;;;14.42;100.00
8160;BME280;27404;52.398;9.646;2023-03-18T10:45:45;100439.69;;;14.11;100.00
8160;BME280;27404;52.398;9.646;2023-03-18T10:47:51;100435.56;;;14.14;100.00
8160;BME280;27404;52.398;9.646;2023-03-18T10:50:30;100442.34;;;14.01;100.00
8160;BME280;27404;52.398;9.646;2023-03-18T10:53:16;100437.00;;;14.27;100.00
8160;BME280;27404;52.398;9.646;2023-03-18T10:55:52;100443.16;;;14.39;100.00
8160;BME280;27404;52.398;9.646;2023-03-18T10:58:22;100443.72;;;14.41;100.00
8160;BME280;27404;52.398;9.646;2023-03-18T11:00:47;100443.69;;;14.36;100.00
8160;BME280;27404;52.398;9.646;2023-03-18T11:03:25;100442.41;;;14.49;100.00
8160;BME280;27404;52.398;9.646;2023-03-18T11:05:53;100445.25;;;14.70;100.00
8160;BME280;27404;52.398;9.646;2023-03-18T11:08:34;100442.72;;;14.63;100.00
8160;BME280;27404;52.398;9.646;2023-03-18T11:11:29;100441.78;;;15.00;100.00
8160;BME280;27404;52.398;9.646;2023-03-18T11:13:58;100447.59;;;15.04;100.00
8160;BME280;27404;52.398;9.646;2023-03-18T11:19:36;100452.88;;;14.57;100.00
8160;BME280;27404;52.398;9.646;2023-03-18T11:24:35;100452.72;;;14.74;100.00
8160;BME280;27404;52.398;9.646;2023-03-18T11:29:44;100445.44;;;15.16;100.00
8160;BME280;27404;52.398;9.646;2023-03-18T11:32:34;100445.44;;;15.27;100.00
8160;BME280;27404;52.398;9.646;2023-03-18T11:35:03;100452.31;;;15.19;100.00
8160;BME280;27404;52.398;9.646;2023-03-18T11:37:36;100447.41;;;15.31;100.00
8160;BME280;27404;52.398;9.646;2023-03-18T11:40:27;100442.13;;;15.14;100.00
8160;BME280;27404;52.398;9.646;2023-03-18T11:43:15;100447.94;;;15.33;100.00
8160;BME280;27404;52.398;9.646;2023-03-18T11:45:45;100441.09;;;15.57;100.00
8160;BME280;27404;52.398;9.646;2023-03-18T11:48:35;100457.63;;;15.67;100.00
8160;BME280;27404;52.398;9.646;2023-03-18T11:56:40;100461.19;;;15.67;100.00
8160;BME280;27404;52.398;9.646;2023-03-18T12:05:02;100457.34;;;15.79;100.00
8160;BME280;27404;52.398;9.646;2023-03-18T12:10:48;100447.69;;;15.50;100.00
8160;BME280;27404;52.398;9.646;2023-03-18T12:16:16;100462.28;;;15.40;100.00
8160;BME280;27404;52.398;9.646;2023-03-18T12:21:45;100456.53;;;15.63;100.00
8160;BME280;27404;52.398;9.646;2023-03-18T12:27:39;100457.91;;;15.81;100.00
8160;BME280;27404;52.398;9.646;2023-03-18T12:42:02;100459.84;;;15.91;100.00
8160;BME280;27404;52.398;9.646;2023-03-18T12:47:17;100465.13;;;15.92;100.00
8160;BME280;27404;52.398;9.646;2023-03-18T12:49:52;100459.88;;;16.01;100.00
8160;BME280;27404;52.398;9.646;2023-03-18T12:55:23;100448.81;;;16.11;100.00
8160;BME280;27404;52.398;9.646;2023-03-18T12:58:00;100447.41;;;16.35;100.00
8160;BME280;27404;52.398;9.646;2023-03-18T13:00:38;100455.69;;;16.29;100.00
8160;BME280;27404;52.398;9.646;2023-03-18T13:05:52;100452.94;;;15.78;100.00
8160;BME280;27404;52.398;9.646;2023-03-18T13:11:25;100439.72;;;15.69;100.00
8160;BME280;27404;52.398;9.646;2023-03-18T13:13:59;100445.53;;;15.73;100.00
8160;BME280;27404;52.398;9.646;2023-03-18T13:16:29;100443.06;;;15.87;100.00
8160;BME280;27404;52.398;9.646;2023-03-18T13:18:56;100445.53;;;15.78;100.00
8160;BME280;27404;52.398;9.646;2023-03-18T13:21:30;100455.44;;;15.84;100.00
8160;BME280;27404;52.398;9.646;2023-03-18T13:30:27;100452.13;;;16.03;100.00
8160;BME280;27404;52.398;9.646;2023-03-18T13:44:27;100446.84;;;16.38;100.00
8160;BME280;27404;52.398;9.646;2023-03-18T13:47:04;100452.09;;;16.34;100.00
8160;BME280;27404;52.398;9.646;2023-03-18T13:49:32;100451.47;;;16.58;100.00
8160;BME280;27404;52.398;9.646;2023-03-18T13:52:02;100447.03;;;16.67;100.00
8160;BME280;27404;52.398;9.646;2023-03-18T13:54:34;100442.22;;;16.99;100.00
8160;BME280;27404;52.398;9.646;2023-03-18T13:59:48;100436.97;;;17.08;100.00
8160;BME280;27404;52.398;9.646;2023-03-18T14:02:42;100439.84;;;16.71;100.00
8160;BME280;27404;52.398;9.646;2023-03-18T14:07:57;100444.78;;;16.80;100.00
8160;BME280;27404;52.398;9.646;2023-03-18T14:10:23;100434.31;;;16.77;100.00
8160;BME280;27404;52.398;9.646;2023-03-18T14:12:49;100439.03;;;16.71;100.00
8160;BME280;27404;52.398;9.646;2023-03-18T14:17:44;100434.66;;;16.54;100.00
8160;BME280;27404;52.398;9.646;2023-03-18T14:20:21;100434.66;;;16.54;100.00
8160;BME280;27404;52.398;9.646;2023-03-18T14:22:50;100427.78;;;16.52;100.00
8160;BME280;27404;52.398;9.646;2023-03-18T14:27:53;100427.53;;;16.33;100.00
8160;BME280;27404;52.398;9.646;2023-03-18T14:33:45;100427.28;;;16.34;100.00
8160;BME280;27404;52.398;9.646;2023-03-18T14:35:57;100422.88;;;16.33;100.00
8160;BME280;27404;52.398;9.646;2023-03-18T14:38:27;100424.84;;;16.12;100.00
8160;BME280;27404;52.398;9.646;2023-03-18T14:40:55;100430.63;;;16.00;100.00
8160;BME280;27404;52.398;9.646;2023-03-18T14:43:27;100423.22;;;16.01;100.00
8160;BME280;27404;52.398;9.646;2023-03-18T14:46:00;100424.84;;;15.86;100.00
8160;BME280;27404;52.398;9.646;2023-03-18T14:48:30;100428.69;;;15.85;100.00
8160;BME280;27404;52.398;9.646;2023-03-18T14:51:00;100421.81;;;15.77;100.00
8160;BME280;27404;52.398;9.646;2023-03-18T14:53:46;100424.28;;;15.74;100.00
8160;BME280;27404;52.398;9.646;2023-03-18T14:56:23;100425.38;;;15.67;100.00
8160;BME280;27404;52.398;9.646;2023-03-18T14:58:52;100426.78;;;15.60;100.00
8160;BME280;27404;52.398;9.646;2023-03-18T15:01:35;100427.59;;;15.60;100.00